< Cyclone 197405 1974 Season Cyclone 197407 >
Cyclone 197406 (UNA)
General InformationTrack Information on Google Maps || ResourceGoogle EarthGE AnimationAtom FeedGeoJSON
Detalied Best Track (Time Zone = UTC)
Year Month Day Hour Lat. Long. Pressure (hPa) Wind (kt) Class Image Chart
1973 12 14 23 -13.8 156.8 1000 0 0 -- --
1973 12 15 02 -13.9 156.5 1000 0 0 -- --
1973 12 15 05 -14.0 156.2 998 0 0 -- --
1973 12 15 08 -14.1 155.9 998 0 0 -- --
1973 12 15 11 -14.1 155.6 998 0 0 -- --
1973 12 15 14 -14.1 155.3 998 0 0 -- --
1973 12 15 17 -14.2 155.0 998 0 0 -- --
1973 12 15 20 -14.2 154.7 998 0 0 -- --
1973 12 15 23 -14.2 154.5 997 0 0 -- --
1973 12 16 02 -14.3 154.3 996 0 0 -- --
1973 12 16 05 -14.3 154.0 996 0 0 -- --
1973 12 16 08 -14.4 153.7 996 0 0 -- --
1973 12 16 11 -14.4 153.5 996 0 0 -- --
1973 12 16 14 -14.4 153.3 995 0 0 -- --
1973 12 16 17 -14.4 153.0 998 0 0 -- --
1973 12 16 20 -14.4 152.7 995 0 0 -- --
1973 12 16 23 -14.4 152.5 995 0 0 -- --
1973 12 17 02 -14.4 152.2 995 0 0 -- --
1973 12 17 05 -14.4 151.8 993 0 0 -- --
1973 12 17 08 -14.5 151.3 993 0 0 -- --
1973 12 17 11 -14.7 150.4 993 0 0 -- --
1973 12 17 14 -15.1 149.8 993 0 0 -- --
1973 12 17 17 -15.4 149.3 993 0 0 -- --
1973 12 17 20 -16.1 148.9 993 0 0 -- --
1973 12 17 23 -16.8 148.4 993 0 0 -- --
1973 12 18 02 -17.7 148.0 993 0 0 -- --
1973 12 18 05 -18.0 147.7 992 0 0 -- --
1973 12 18 08 -18.4 147.4 991 0 0 -- --
1973 12 18 11 -18.6 147.2 989 0 0 -- --
1973 12 18 14 -19.0 147.1 985 0 0 -- --
1973 12 18 17 -19.5 147.2 988 0 0 -- --
1973 12 18 20 -20.2 147.2 994 0 0 -- --
1973 12 18 23 -20.8 147.2 998 0 0 -- --
1973 12 19 02 -21.4 147.2 998 0 0 -- --
1973 12 19 05 -21.8 147.2 998 0 0 -- --
1973 12 19 08 -22.1 147.2 998 0 0 -- --
1973 12 19 11 -22.4 147.3 998 0 0 -- --
1973 12 19 14 -22.6 147.4 998 0 0 -- --
1973 12 19 17 -22.9 147.6 998 0 0 -- --
1973 12 19 20 -23.2 147.9 1000 0 0 -- --
1973 12 19 23 -23.6 148.3 1000 0 0 -- --
1973 12 20 02 -24.0 148.7 1002 0 0 -- --
< Cyclone 197405 1974 Season Cyclone 197407 >

Help